sensor_id;sensor_type;location;lat;lon;timestamp;P1;durP1;ratioP1;P2;durP2;ratioP2
31112;SDS011;17763;48.730;9.136;2022-10-30T00:00:44;8.45;;;4.07;;
31112;SDS011;17763;48.730;9.136;2022-10-30T00:03:12;10.80;;;3.55;;
31112;SDS011;17763;48.730;9.136;2022-10-30T00:05:45;7.60;;;2.90;;
31112;SDS011;17763;48.730;9.136;2022-10-30T00:10:39;9.13;;;3.55;;
31112;SDS011;17763;48.730;9.136;2022-10-30T00:13:05;11.02;;;3.83;;
31112;SDS011;17763;48.730;9.136;2022-10-30T00:15:33;11.15;;;3.67;;
31112;SDS011;17763;48.730;9.136;2022-10-30T00:17:59;9.60;;;3.40;;
31112;SDS011;17763;48.730;9.136;2022-10-30T00:20:27;10.00;;;3.38;;
31112;SDS011;17763;48.730;9.136;2022-10-30T00:22:53;9.10;;;3.85;;
31112;SDS011;17763;48.730;9.136;2022-10-30T00:25:19;11.70;;;4.18;;
31112;SDS011;17763;48.730;9.136;2022-10-30T00:27:45;12.48;;;4.10;;
31112;SDS011;17763;48.730;9.136;2022-10-30T00:30:12;8.98;;;3.67;;
31112;SDS011;17763;48.730;9.136;2022-10-30T00:32:39;8.93;;;3.90;;
31112;SDS011;17763;48.730;9.136;2022-10-30T00:35:06;12.05;;;4.65;;
31112;SDS011;17763;48.730;9.136;2022-10-30T00:37:35;6.65;;;3.60;;
31112;SDS011;17763;48.730;9.136;2022-10-30T00:40:01;8.77;;;4.15;;
31112;SDS011;17763;48.730;9.136;2022-10-30T00:42:28;10.88;;;3.92;;
31112;SDS011;17763;48.730;9.136;2022-10-30T00:44:55;7.53;;;4.13;;
31112;SDS011;17763;48.730;9.136;2022-10-30T00:47:25;11.43;;;3.67;;
31112;SDS011;17763;48.730;9.136;2022-10-30T00:50:04;7.30;;;3.60;;
31112;SDS011;17763;48.730;9.136;2022-10-30T00:55:33;6.78;;;4.18;;
31112;SDS011;17763;48.730;9.136;2022-10-30T00:58:09;8.50;;;3.60;;
31112;SDS011;17763;48.730;9.136;2022-10-30T01:00:39;9.20;;;4.18;;
31112;SDS011;17763;48.730;9.136;2022-10-30T01:03:10;7.93;;;3.25;;
31112;SDS011;17763;48.730;9.136;2022-10-30T01:05:38;13.32;;;3.97;;
31112;SDS011;17763;48.730;9.136;2022-10-30T01:08:06;8.07;;;3.33;;
31112;SDS011;17763;48.730;9.136;2022-10-30T01:10:32;10.50;;;4.40;;
31112;SDS011;17763;48.730;9.136;2022-10-30T01:13:00;10.25;;;4.95;;
31112;SDS011;17763;48.730;9.136;2022-10-30T01:15:31;6.07;;;3.67;;
31112;SDS011;17763;48.730;9.136;2022-10-30T01:20:58;12.05;;;3.35;;
31112;SDS011;17763;48.730;9.136;2022-10-30T01:26:20;11.97;;;4.70;;
31112;SDS011;17763;48.730;9.136;2022-10-30T01:29:08;6.07;;;3.38;;
31112;SDS011;17763;48.730;9.136;2022-10-30T01:31:57;10.57;;;4.20;;
31112;SDS011;17763;48.730;9.136;2022-10-30T01:40:11;8.95;;;3.47;;
31112;SDS011;17763;48.730;9.136;2022-10-30T01:42:48;10.07;;;3.63;;
31112;SDS011;17763;48.730;9.136;2022-10-30T01:45:19;19.92;;;4.30;;
31112;SDS011;17763;48.730;9.136;2022-10-30T01:53:42;8.57;;;3.70;;
31112;SDS011;17763;48.730;9.136;2022-10-30T01:56:44;7.43;;;3.90;;
31112;SDS011;17763;48.730;9.136;2022-10-30T02:01:59;5.25;;;3.47;;
31112;SDS011;17763;48.730;9.136;2022-10-30T02:04:29;7.80;;;3.63;;
31112;SDS011;17763;48.730;9.136;2022-10-30T02:06:56;6.55;;;3.53;;
31112;SDS011;17763;48.730;9.136;2022-10-30T02:09:22;10.65;;;3.97;;
31112;SDS011;17763;48.730;9.136;2022-10-30T02:11:48;11.57;;;3.85;;
31112;SDS011;17763;48.730;9.136;2022-10-30T02:14:17;10.70;;;4.00;;
31112;SDS011;17763;48.730;9.136;2022-10-30T02:16:53;15.32;;;4.10;;
31112;SDS011;17763;48.730;9.136;2022-10-30T02:19:21;7.93;;;3.92;;
31112;SDS011;17763;48.730;9.136;2022-10-30T02:21:49;13.40;;;6.00;;
31112;SDS011;17763;48.730;9.136;2022-10-30T02:24:17;8.50;;;3.42;;
31112;SDS011;17763;48.730;9.136;2022-10-30T02:26:42;10.40;;;4.38;;
31112;SDS011;17763;48.730;9.136;2022-10-30T02:29:08;16.00;;;5.03;;
31112;SDS011;17763;48.730;9.136;2022-10-30T02:31:34;8.98;;;4.30;;
31112;SDS011;17763;48.730;9.136;2022-10-30T02:34:00;8.32;;;4.55;;
31112;SDS011;17763;48.730;9.136;2022-10-30T02:36:26;12.77;;;5.35;;
31112;SDS011;17763;48.730;9.136;2022-10-30T02:38:51;14.65;;;6.28;;
31112;SDS011;17763;48.730;9.136;2022-10-30T02:41:19;13.95;;;5.45;;
31112;SDS011;17763;48.730;9.136;2022-10-30T02:43:45;13.65;;;5.65;;
31112;SDS011;17763;48.730;9.136;2022-10-30T02:46:11;14.80;;;6.95;;
31112;SDS011;17763;48.730;9.136;2022-10-30T02:48:36;9.90;;;5.22;;
31112;SDS011;17763;48.730;9.136;2022-10-30T02:51:04;14.07;;;5.43;;
31112;SDS011;17763;48.730;9.136;2022-10-30T02:53:30;9.40;;;5.35;;
31112;SDS011;17763;48.730;9.136;2022-10-30T02:56:02;9.90;;;6.93;;
31112;SDS011;17763;48.730;9.136;2022-10-30T02:58:37;12.45;;;5.55;;
31112;SDS011;17763;48.730;9.136;2022-10-30T03:03:36;13.90;;;5.13;;
31112;SDS011;17763;48.730;9.136;2022-10-30T03:06:05;10.32;;;5.40;;
31112;SDS011;17763;48.730;9.136;2022-10-30T03:08:32;13.02;;;6.10;;
31112;SDS011;17763;48.730;9.136;2022-10-30T03:11:08;12.40;;;5.93;;
31112;SDS011;17763;48.730;9.136;2022-10-30T03:13:39;17.88;;;6.00;;
31112;SDS011;17763;48.730;9.136;2022-10-30T03:16:13;13.55;;;6.30;;
31112;SDS011;17763;48.730;9.136;2022-10-30T03:18:55;11.88;;;5.90;;
31112;SDS011;17763;48.730;9.136;2022-10-30T03:21:22;14.27;;;6.60;;
31112;SDS011;17763;48.730;9.136;2022-10-30T03:23:49;14.45;;;6.68;;
31112;SDS011;17763;48.730;9.136;2022-10-30T03:26:18;12.30;;;6.57;;
31112;SDS011;17763;48.730;9.136;2022-10-30T03:28:47;15.27;;;6.95;;
31112;SDS011;17763;48.730;9.136;2022-10-30T03:33:42;11.50;;;6.18;;
31112;SDS011;17763;48.730;9.136;2022-10-30T03:36:11;19.10;;;7.03;;
31112;SDS011;17763;48.730;9.136;2022-10-30T03:38:38;14.60;;;8.60;;
31112;SDS011;17763;48.730;9.136;2022-10-30T03:41:06;14.00;;;6.32;;
31112;SDS011;17763;48.730;9.136;2022-10-30T03:43:32;15.30;;;6.00;;
31112;SDS011;17763;48.730;9.136;2022-10-30T03:46:00;14.18;;;6.72;;
31112;SDS011;17763;48.730;9.136;2022-10-30T03:48:26;12.35;;;7.05;;
31112;SDS011;17763;48.730;9.136;2022-10-30T03:50:55;10.30;;;6.20;;
31112;SDS011;17763;48.730;9.136;2022-10-30T03:53:23;13.05;;;6.60;;
31112;SDS011;17763;48.730;9.136;2022-10-30T03:55:50;12.50;;;6.43;;
31112;SDS011;17763;48.730;9.136;2022-10-30T03:58:21;11.20;;;6.53;;
31112;SDS011;17763;48.730;9.136;2022-10-30T04:00:49;10.00;;;6.00;;
31112;SDS011;17763;48.730;9.136;2022-10-30T04:03:15;10.18;;;6.90;;
31112;SDS011;17763;48.730;9.136;2022-10-30T04:05:40;11.85;;;6.78;;
31112;SDS011;17763;48.730;9.136;2022-10-30T04:08:08;12.48;;;6.20;;
31112;SDS011;17763;48.730;9.136;2022-10-30T04:10:41;19.27;;;6.03;;
31112;SDS011;17763;48.730;9.136;2022-10-30T04:13:13;10.45;;;5.70;;
31112;SDS011;17763;48.730;9.136;2022-10-30T04:15:43;9.15;;;6.03;;
31112;SDS011;17763;48.730;9.136;2022-10-30T04:18:09;17.35;;;6.13;;
31112;SDS011;17763;48.730;9.136;2022-10-30T04:20:38;13.45;;;6.50;;
31112;SDS011;17763;48.730;9.136;2022-10-30T04:23:05;13.02;;;6.32;;
31112;SDS011;17763;48.730;9.136;2022-10-30T04:25:34;9.23;;;5.82;;
31112;SDS011;17763;48.730;9.136;2022-10-30T04:28:00;15.95;;;6.65;;
31112;SDS011;17763;48.730;9.136;2022-10-30T04:30:26;12.18;;;6.72;;
31112;SDS011;17763;48.730;9.136;2022-10-30T04:32:53;13.15;;;6.40;;
31112;SDS011;17763;48.730;9.136;2022-10-30T04:35:21;10.65;;;6.57;;
31112;SDS011;17763;48.730;9.136;2022-10-30T04:40:24;11.25;;;7.15;;
31112;SDS011;17763;48.730;9.136;2022-10-30T04:42:51;12.93;;;7.93;;
31112;SDS011;17763;48.730;9.136;2022-10-30T04:45:17;14.50;;;7.50;;
31112;SDS011;17763;48.730;9.136;2022-10-30T04:47:45;8.63;;;6.25;;
31112;SDS011;17763;48.730;9.136;2022-10-30T04:50:11;11.45;;;6.93;;
31112;SDS011;17763;48.730;9.136;2022-10-30T04:52:37;11.57;;;6.28;;
31112;SDS011;17763;48.730;9.136;2022-10-30T04:55:04;9.13;;;6.63;;
31112;SDS011;17763;48.730;9.136;2022-10-30T04:57:30;14.93;;;6.63;;
31112;SDS011;17763;48.730;9.136;2022-10-30T05:00:02;12.52;;;6.50;;
31112;SDS011;17763;48.730;9.136;2022-10-30T05:02:35;8.98;;;6.57;;
31112;SDS011;17763;48.730;9.136;2022-10-30T05:05:03;13.45;;;6.15;;
31112;SDS011;17763;48.730;9.136;2022-10-30T05:07:29;10.32;;;6.45;;
31112;SDS011;17763;48.730;9.136;2022-10-30T05:09:55;11.63;;;6.65;;
31112;SDS011;17763;48.730;9.136;2022-10-30T05:12:20;9.50;;;6.20;;
31112;SDS011;17763;48.730;9.136;2022-10-30T05:14:46;10.80;;;6.85;;
31112;SDS011;17763;48.730;9.136;2022-10-30T05:17:12;13.40;;;6.70;;
31112;SDS011;17763;48.730;9.136;2022-10-30T05:19:40;9.52;;;6.55;;
31112;SDS011;17763;48.730;9.136;2022-10-30T05:22:08;12.13;;;7.47;;
31112;SDS011;17763;48.730;9.136;2022-10-30T05:24:36;11.25;;;6.90;;
31112;SDS011;17763;48.730;9.136;2022-10-30T05:27:02;13.25;;;7.53;;
31112;SDS011;17763;48.730;9.136;2022-10-30T05:29:30;14.13;;;7.55;;
31112;SDS011;17763;48.730;9.136;2022-10-30T05:31:55;12.65;;;7.00;;
31112;SDS011;17763;48.730;9.136;2022-10-30T05:34:21;11.35;;;6.70;;
31112;SDS011;17763;48.730;9.136;2022-10-30T05:36:51;13.52;;;6.78;;
31112;SDS011;17763;48.730;9.136;2022-10-30T05:39:17;15.20;;;7.53;;
31112;SDS011;17763;48.730;9.136;2022-10-30T05:41:42;15.82;;;7.25;;
31112;SDS011;17763;48.730;9.136;2022-10-30T05:44:08;10.70;;;6.25;;
31112;SDS011;17763;48.730;9.136;2022-10-30T05:46:33;10.45;;;6.47;;
31112;SDS011;17763;48.730;9.136;2022-10-30T05:49:02;12.27;;;6.45;;
31112;SDS011;17763;48.730;9.136;2022-10-30T05:51:28;12.50;;;6.40;;
31112;SDS011;17763;48.730;9.136;2022-10-30T05:53:53;10.20;;;6.65;;
31112;SDS011;17763;48.730;9.136;2022-10-30T05:56:19;11.95;;;6.88;;
31112;SDS011;17763;48.730;9.136;2022-10-30T05:58:46;14.50;;;6.93;;
31112;SDS011;17763;48.730;9.136;2022-10-30T06:01:13;12.55;;;6.85;;
31112;SDS011;17763;48.730;9.136;2022-10-30T06:03:39;13.02;;;7.30;;
31112;SDS011;17763;48.730;9.136;2022-10-30T06:06:05;11.35;;;6.45;;
31112;SDS011;17763;48.730;9.136;2022-10-30T06:08:33;12.20;;;6.85;;
31112;SDS011;17763;48.730;9.136;2022-10-30T06:10:58;11.23;;;5.88;;
31112;SDS011;17763;48.730;9.136;2022-10-30T06:13:24;16.20;;;7.47;;
31112;SDS011;17763;48.730;9.136;2022-10-30T06:15:50;11.73;;;6.95;;
31112;SDS011;17763;48.730;9.136;2022-10-30T06:18:20;11.18;;;7.38;;
31112;SDS011;17763;48.730;9.136;2022-10-30T06:20:52;11.27;;;6.03;;
31112;SDS011;17763;48.730;9.136;2022-10-30T06:23:21;11.10;;;6.07;;
31112;SDS011;17763;48.730;9.136;2022-10-30T06:25:47;8.35;;;6.05;;
31112;SDS011;17763;48.730;9.136;2022-10-30T06:28:13;10.40;;;6.45;;
31112;SDS011;17763;48.730;9.136;2022-10-30T06:30:39;12.68;;;6.10;;
31112;SDS011;17763;48.730;9.136;2022-10-30T06:33:04;9.45;;;5.57;;
31112;SDS011;17763;48.730;9.136;2022-10-30T06:35:30;11.80;;;5.80;;
31112;SDS011;17763;48.730;9.136;2022-10-30T06:37:56;16.45;;;7.20;;
31112;SDS011;17763;48.730;9.136;2022-10-30T06:40:27;12.32;;;6.05;;
31112;SDS011;17763;48.730;9.136;2022-10-30T06:42:54;15.75;;;5.93;;
31112;SDS011;17763;48.730;9.136;2022-10-30T06:45:20;14.13;;;5.90;;
31112;SDS011;17763;48.730;9.136;2022-10-30T06:47:49;13.32;;;5.65;;
31112;SDS011;17763;48.730;9.136;2022-10-30T06:50:16;12.43;;;5.80;;
31112;SDS011;17763;48.730;9.136;2022-10-30T06:52:46;9.35;;;5.90;;
31112;SDS011;17763;48.730;9.136;2022-10-30T06:55:14;14.63;;;5.38;;
31112;SDS011;17763;48.730;9.136;2022-10-30T06:57:40;8.85;;;5.90;;
31112;SDS011;17763;48.730;9.136;2022-10-30T07:00:06;10.60;;;5.65;;
31112;SDS011;17763;48.730;9.136;2022-10-30T07:02:32;10.30;;;5.10;;
31112;SDS011;17763;48.730;9.136;2022-10-30T07:04:58;13.85;;;6.05;;
31112;SDS011;17763;48.730;9.136;2022-10-30T07:07:29;8.97;;;4.90;;
31112;SDS011;17763;48.730;9.136;2022-10-30T07:09:54;11.55;;;5.22;;
31112;SDS011;17763;48.730;9.136;2022-10-30T07:12:20;8.85;;;5.25;;
31112;SDS011;17763;48.730;9.136;2022-10-30T07:14:48;16.02;;;5.75;;
31112;SDS011;17763;48.730;9.136;2022-10-30T07:17:14;9.68;;;5.07;;
31112;SDS011;17763;48.730;9.136;2022-10-30T07:19:39;7.80;;;4.32;;
31112;SDS011;17763;48.730;9.136;2022-10-30T07:22:05;15.48;;;5.10;;
31112;SDS011;17763;48.730;9.136;2022-10-30T07:24:30;9.60;;;4.68;;
31112;SDS011;17763;48.730;9.136;2022-10-30T07:26:58;11.25;;;4.82;;
31112;SDS011;17763;48.730;9.136;2022-10-30T07:29:24;7.10;;;4.72;;
31112;SDS011;17763;48.730;9.136;2022-10-30T07:31:52;10.05;;;4.60;;
31112;SDS011;17763;48.730;9.136;2022-10-30T07:34:19;13.90;;;6.40;;
31112;SDS011;17763;48.730;9.136;2022-10-30T07:36:45;11.77;;;5.38;;
31112;SDS011;17763;48.730;9.136;2022-10-30T07:39:11;8.52;;;4.80;;
31112;SDS011;17763;48.730;9.136;2022-10-30T07:41:36;18.83;;;5.07;;
31112;SDS011;17763;48.730;9.136;2022-10-30T07:44:02;7.95;;;5.20;;
31112;SDS011;17763;48.730;9.136;2022-10-30T07:46:28;9.90;;;5.43;;
31112;SDS011;17763;48.730;9.136;2022-10-30T07:48:53;11.90;;;5.82;;
31112;SDS011;17763;48.730;9.136;2022-10-30T07:51:20;10.98;;;5.18;;
31112;SDS011;17763;48.730;9.136;2022-10-30T07:53:46;6.65;;;4.47;;
31112;SDS011;17763;48.730;9.136;2022-10-30T07:56:13;13.98;;;4.90;;
31112;SDS011;17763;48.730;9.136;2022-10-30T07:58:39;6.63;;;4.57;;
31112;SDS011;17763;48.730;9.136;2022-10-30T08:01:05;8.20;;;4.68;;
31112;SDS011;17763;48.730;9.136;2022-10-30T08:03:35;11.40;;;5.47;;
31112;SDS011;17763;48.730;9.136;2022-10-30T08:06:03;7.03;;;4.35;;
31112;SDS011;17763;48.730;9.136;2022-10-30T08:08:31;9.85;;;4.53;;
31112;SDS011;17763;48.730;9.136;2022-10-30T08:10:57;12.82;;;5.95;;
31112;SDS011;17763;48.730;9.136;2022-10-30T08:13:24;8.35;;;4.53;;
31112;SDS011;17763;48.730;9.136;2022-10-30T08:15:50;8.15;;;4.63;;
31112;SDS011;17763;48.730;9.136;2022-10-30T08:18:16;8.88;;;5.22;;
31112;SDS011;17763;48.730;9.136;2022-10-30T08:20:41;9.95;;;4.78;;
31112;SDS011;17763;48.730;9.136;2022-10-30T08:25:38;10.98;;;6.00;;
31112;SDS011;17763;48.730;9.136;2022-10-30T08:28:09;10.68;;;5.88;;
31112;SDS011;17763;48.730;9.136;2022-10-30T08:30:39;6.28;;;4.38;;
31112;SDS011;17763;48.730;9.136;2022-10-30T08:33:06;10.88;;;6.65;;
31112;SDS011;17763;48.730;9.136;2022-10-30T08:35:34;9.07;;;5.10;;
31112;SDS011;17763;48.730;9.136;2022-10-30T08:38:02;7.60;;;6.00;;
31112;SDS011;17763;48.730;9.136;2022-10-30T08:40:30;24.80;;;6.15;;
31112;SDS011;17763;48.730;9.136;2022-10-30T08:42:58;7.40;;;4.63;;
31112;SDS011;17763;48.730;9.136;2022-10-30T08:45:23;11.43;;;5.20;;
31112;SDS011;17763;48.730;9.136;2022-10-30T08:47:56;11.85;;;5.97;;
31112;SDS011;17763;48.730;9.136;2022-10-30T08:50:28;11.20;;;5.28;;
31112;SDS011;17763;48.730;9.136;2022-10-30T08:53:05;12.32;;;5.63;;
31112;SDS011;17763;48.730;9.136;2022-10-30T08:55:34;11.48;;;4.78;;
31112;SDS011;17763;48.730;9.136;2022-10-30T08:58:05;7.50;;;4.95;;
31112;SDS011;17763;48.730;9.136;2022-10-30T09:00:31;10.48;;;5.25;;
31112;SDS011;17763;48.730;9.136;2022-10-30T09:02:56;8.82;;;5.07;;
31112;SDS011;17763;48.730;9.136;2022-10-30T09:05:22;9.10;;;4.72;;
31112;SDS011;17763;48.730;9.136;2022-10-30T09:07:48;9.30;;;4.55;;
31112;SDS011;17763;48.730;9.136;2022-10-30T09:10:14;11.45;;;5.68;;
31112;SDS011;17763;48.730;9.136;2022-10-30T09:12:39;10.02;;;5.03;;
31112;SDS011;17763;48.730;9.136;2022-10-30T09:15:05;10.68;;;4.97;;
31112;SDS011;17763;48.730;9.136;2022-10-30T09:17:31;14.05;;;5.10;;
31112;SDS011;17763;48.730;9.136;2022-10-30T09:20:00;7.10;;;4.20;;
31112;SDS011;17763;48.730;9.136;2022-10-30T09:22:25;9.25;;;4.75;;
31112;SDS011;17763;48.730;9.136;2022-10-30T09:24:51;10.73;;;4.55;;
31112;SDS011;17763;48.730;9.136;2022-10-30T09:27:19;10.45;;;5.80;;
31112;SDS011;17763;48.730;9.136;2022-10-30T09:29:44;12.23;;;5.72;;
31112;SDS011;17763;48.730;9.136;2022-10-30T09:32:12;9.85;;;5.00;;
31112;SDS011;17763;48.730;9.136;2022-10-30T09:34:38;13.85;;;4.97;;
31112;SDS011;17763;48.730;9.136;2022-10-30T09:37:06;12.07;;;4.75;;
31112;SDS011;17763;48.730;9.136;2022-10-30T09:39:34;10.60;;;4.82;;
31112;SDS011;17763;48.730;9.136;2022-10-30T09:50:24;8.82;;;4.88;;
31112;SDS011;17763;48.730;9.136;2022-10-30T09:55:46;15.05;;;5.63;;
31112;SDS011;17763;48.730;9.136;2022-10-30T10:01:12;9.18;;;4.78;;
31112;SDS011;17763;48.730;9.136;2022-10-30T10:06:23;13.35;;;6.53;;
31112;SDS011;17763;48.730;9.136;2022-10-30T10:08:52;6.85;;;4.63;;
31112;SDS011;17763;48.730;9.136;2022-10-30T10:11:25;11.45;;;5.30;;
31112;SDS011;17763;48.730;9.136;2022-10-30T10:13:57;8.57;;;4.50;;
31112;SDS011;17763;48.730;9.136;2022-10-30T10:16:28;12.23;;;5.07;;
31112;SDS011;17763;48.730;9.136;2022-10-30T10:19:00;6.00;;;4.03;;
31112;SDS011;17763;48.730;9.136;2022-10-30T10:21:41;13.20;;;4.80;;
31112;SDS011;17763;48.730;9.136;2022-10-30T10:24:19;8.20;;;4.45;;
31112;SDS011;17763;48.730;9.136;2022-10-30T10:28:10;12.60;;;4.78;;
31112;SDS011;17763;48.730;9.136;2022-10-30T10:30:07;9.10;;;3.95;;
31112;SDS011;17763;48.730;9.136;2022-10-30T10:51:20;12.85;;;4.63;;
31112;SDS011;17763;48.730;9.136;2022-10-30T10:56:28;10.30;;;4.18;;
31112;SDS011;17763;48.730;9.136;2022-10-30T11:01:43;6.78;;;3.22;;
31112;SDS011;17763;48.730;9.136;2022-10-30T11:04:27;7.85;;;3.85;;
31112;SDS011;17763;48.730;9.136;2022-10-30T11:07:13;10.50;;;3.38;;
31112;SDS011;17763;48.730;9.136;2022-10-30T11:09:41;12.88;;;4.43;;
31112;SDS011;17763;48.730;9.136;2022-10-30T11:12:08;12.18;;;4.80;;
31112;SDS011;17763;48.730;9.136;2022-10-30T11:14:33;9.20;;;4.25;;
31112;SDS011;17763;48.730;9.136;2022-10-30T11:17:03;7.32;;;3.80;;
31112;SDS011;17763;48.730;9.136;2022-10-30T11:19:48;8.30;;;3.53;;
31112;SDS011;17763;48.730;9.136;2022-10-30T11:22:24;7.67;;;3.43;;
31112;SDS011;17763;48.730;9.136;2022-10-30T11:25:09;11.02;;;3.97;;
31112;SDS011;17763;48.730;9.136;2022-10-30T11:27:44;11.43;;;4.20;;
31112;SDS011;17763;48.730;9.136;2022-10-30T11:30:19;14.88;;;4.55;;
31112;SDS011;17763;48.730;9.136;2022-10-30T11:32:46;8.52;;;4.03;;
31112;SDS011;17763;48.730;9.136;2022-10-30T11:35:15;9.75;;;4.53;;
31112;SDS011;17763;48.730;9.136;2022-10-30T11:37:49;10.10;;;3.17;;
31112;SDS011;17763;48.730;9.136;2022-10-30T11:40:33;16.98;;;4.32;;
31112;SDS011;17763;48.730;9.136;2022-10-30T11:43:00;8.45;;;4.07;;
31112;SDS011;17763;48.730;9.136;2022-10-30T11:48:03;9.32;;;3.90;;
31112;SDS011;17763;48.730;9.136;2022-10-30T11:50:35;8.63;;;3.33;;
31112;SDS011;17763;48.730;9.136;2022-10-30T11:53:08;8.85;;;4.45;;
31112;SDS011;17763;48.730;9.136;2022-10-30T11:55:38;9.95;;;3.55;;
31112;SDS011;17763;48.730;9.136;2022-10-30T11:58:16;12.85;;;3.90;;
31112;SDS011;17763;48.730;9.136;2022-10-30T12:00:59;13.07;;;3.85;;
31112;SDS011;17763;48.730;9.136;2022-10-30T12:03:34;12.27;;;4.80;;
31112;SDS011;17763;48.730;9.136;2022-10-30T12:06:06;8.52;;;3.95;;
31112;SDS011;17763;48.730;9.136;2022-10-30T12:08:40;10.23;;;4.60;;
31112;SDS011;17763;48.730;9.136;2022-10-30T12:11:21;7.63;;;3.40;;
31112;SDS011;17763;48.730;9.136;2022-10-30T12:13:56;7.30;;;4.15;;
31112;SDS011;17763;48.730;9.136;2022-10-30T12:16:23;11.73;;;3.67;;
31112;SDS011;17763;48.730;9.136;2022-10-30T12:18:55;12.75;;;5.72;;
31112;SDS011;17763;48.730;9.136;2022-10-30T12:21:25;10.13;;;4.10;;
31112;SDS011;17763;48.730;9.136;2022-10-30T12:23:55;9.93;;;4.63;;
31112;SDS011;17763;48.730;9.136;2022-10-30T12:26:30;7.90;;;3.97;;
31112;SDS011;17763;48.730;9.136;2022-10-30T12:28:58;12.52;;;4.20;;
31112;SDS011;17763;48.730;9.136;2022-10-30T12:31:32;9.85;;;4.07;;
31112;SDS011;17763;48.730;9.136;2022-10-30T12:34:11;9.10;;;4.03;;
31112;SDS011;17763;48.730;9.136;2022-10-30T12:36:49;11.70;;;4.63;;
31112;SDS011;17763;48.730;9.136;2022-10-30T12:39:22;12.43;;;4.38;;
31112;SDS011;17763;48.730;9.136;2022-10-30T12:42:14;10.52;;;4.20;;
31112;SDS011;17763;48.730;9.136;2022-10-30T12:44:48;10.70;;;4.38;;
31112;SDS011;17763;48.730;9.136;2022-10-30T12:55:39;9.88;;;3.92;;
31112;SDS011;17763;48.730;9.136;2022-10-30T13:01:13;10.75;;;4.63;;
31112;SDS011;17763;48.730;9.136;2022-10-30T13:07:08;9.23;;;3.90;;
31112;SDS011;17763;48.730;9.136;2022-10-30T13:12:35;8.07;;;4.20;;
31112;SDS011;17763;48.730;9.136;2022-10-30T13:15:09;11.88;;;4.20;;
31112;SDS011;17763;48.730;9.136;2022-10-30T13:18:01;10.95;;;4.13;;
31112;SDS011;17763;48.730;9.136;2022-10-30T13:24:00;7.13;;;3.65;;
31112;SDS011;17763;48.730;9.136;2022-10-30T13:34:48;7.43;;;3.30;;
31112;SDS011;17763;48.730;9.136;2022-10-30T13:49:08;4.07;;;2.22;;
31112;SDS011;17763;48.730;9.136;2022-10-30T13:51:57;8.02;;;3.05;;
31112;SDS011;17763;48.730;9.136;2022-10-30T13:54:31;4.43;;;2.80;;
31112;SDS011;17763;48.730;9.136;2022-10-30T13:57:44;6.40;;;3.38;;
31112;SDS011;17763;48.730;9.136;2022-10-30T14:00:12;4.18;;;2.95;;
31112;SDS011;17763;48.730;9.136;2022-10-30T14:03:03;6.22;;;3.00;;
31112;SDS011;17763;48.730;9.136;2022-10-30T14:08:08;8.55;;;3.17;;
31112;SDS011;17763;48.730;9.136;2022-10-30T14:10:55;9.43;;;3.00;;
31112;SDS011;17763;48.730;9.136;2022-10-30T14:18:25;6.00;;;2.90;;
31112;SDS011;17763;48.730;9.136;2022-10-30T14:20:53;5.15;;;3.42;;
31112;SDS011;17763;48.730;9.136;2022-10-30T14:23:37;11.35;;;3.88;;
31112;SDS011;17763;48.730;9.136;2022-10-30T14:28:37;5.20;;;2.25;;
31112;SDS011;17763;48.730;9.136;2022-10-30T14:31:13;4.88;;;2.80;;
31112;SDS011;17763;48.730;9.136;2022-10-30T14:33:49;7.53;;;2.45;;
31112;SDS011;17763;48.730;9.136;2022-10-30T14:39:00;7.82;;;3.38;;
31112;SDS011;17763;48.730;9.136;2022-10-30T14:55:48;9.68;;;4.38;;
31112;SDS011;17763;48.730;9.136;2022-10-30T15:14:33;7.85;;;3.60;;
31112;SDS011;17763;48.730;9.136;2022-10-30T15:17:11;10.07;;;3.40;;
31112;SDS011;17763;48.730;9.136;2022-10-30T15:19:47;8.65;;;3.70;;
31112;SDS011;17763;48.730;9.136;2022-10-30T15:22:16;8.93;;;4.00;;
31112;SDS011;17763;48.730;9.136;2022-10-30T15:24:45;10.23;;;3.95;;
31112;SDS011;17763;48.730;9.136;2022-10-30T15:27:15;6.97;;;3.83;;
31112;SDS011;17763;48.730;9.136;2022-10-30T15:29:44;8.48;;;4.40;;
31112;SDS011;17763;48.730;9.136;2022-10-30T15:32:20;9.88;;;4.10;;
31112;SDS011;17763;48.730;9.136;2022-10-30T15:39:48;9.93;;;3.70;;
31112;SDS011;17763;48.730;9.136;2022-10-30T15:42:16;13.55;;;4.40;;
31112;SDS011;17763;48.730;9.136;2022-10-30T15:44:42;9.57;;;4.28;;
31112;SDS011;17763;48.730;9.136;2022-10-30T15:47:13;11.05;;;4.38;;
31112;SDS011;17763;48.730;9.136;2022-10-30T15:55:02;10.07;;;4.13;;
31112;SDS011;17763;48.730;9.136;2022-10-30T15:57:40;9.02;;;4.40;;
31112;SDS011;17763;48.730;9.136;2022-10-30T16:00:23;9.43;;;5.45;;
31112;SDS011;17763;48.730;9.136;2022-10-30T16:05:33;10.23;;;4.50;;
31112;SDS011;17763;48.730;9.136;2022-10-30T16:08:00;10.60;;;4.70;;
31112;SDS011;17763;48.730;9.136;2022-10-30T16:10:29;9.45;;;5.35;;
31112;SDS011;17763;48.730;9.136;2022-10-30T16:12:58;10.52;;;6.70;;
31112;SDS011;17763;48.730;9.136;2022-10-30T16:15:26;14.27;;;7.72;;
31112;SDS011;17763;48.730;9.136;2022-10-30T16:18:07;14.48;;;10.32;;
31112;SDS011;17763;48.730;9.136;2022-10-30T16:20:43;16.80;;;11.82;;
31112;SDS011;17763;48.730;9.136;2022-10-30T16:23:13;14.95;;;9.50;;
31112;SDS011;17763;48.730;9.136;2022-10-30T16:25:40;13.82;;;8.35;;
31112;SDS011;17763;48.730;9.136;2022-10-30T16:28:21;12.48;;;6.50;;
31112;SDS011;17763;48.730;9.136;2022-10-30T16:30:55;10.15;;;6.43;;
31112;SDS011;17763;48.730;9.136;2022-10-30T16:33:26;10.70;;;5.53;;
31112;SDS011;17763;48.730;9.136;2022-10-30T16:35:53;10.85;;;6.10;;
31112;SDS011;17763;48.730;9.136;2022-10-30T16:38:20;10.82;;;6.03;;
31112;SDS011;17763;48.730;9.136;2022-10-30T16:40:47;9.73;;;5.53;;
31112;SDS011;17763;48.730;9.136;2022-10-30T16:43:23;9.48;;;6.40;;
31112;SDS011;17763;48.730;9.136;2022-10-30T16:45:53;12.88;;;6.40;;
31112;SDS011;17763;48.730;9.136;2022-10-30T16:48:38;9.57;;;5.80;;
31112;SDS011;17763;48.730;9.136;2022-10-30T16:51:13;16.15;;;4.85;;
31112;SDS011;17763;48.730;9.136;2022-10-30T16:53:47;9.48;;;5.47;;
31112;SDS011;17763;48.730;9.136;2022-10-30T16:58:49;9.45;;;6.10;;
31112;SDS011;17763;48.730;9.136;2022-10-30T17:01:21;11.13;;;6.68;;
31112;SDS011;17763;48.730;9.136;2022-10-30T17:06:25;12.50;;;6.97;;
31112;SDS011;17763;48.730;9.136;2022-10-30T17:08:56;11.25;;;6.68;;
31112;SDS011;17763;48.730;9.136;2022-10-30T17:11:33;7.38;;;6.22;;
31112;SDS011;17763;48.730;9.136;2022-10-30T17:14:00;13.73;;;6.90;;
31112;SDS011;17763;48.730;9.136;2022-10-30T17:21:54;13.52;;;6.57;;
31112;SDS011;17763;48.730;9.136;2022-10-30T17:26:59;15.90;;;5.88;;
31112;SDS011;17763;48.730;9.136;2022-10-30T17:32:02;10.30;;;6.53;;
31112;SDS011;17763;48.730;9.136;2022-10-30T17:34:28;10.82;;;6.88;;
31112;SDS011;17763;48.730;9.136;2022-10-30T17:36:57;10.68;;;6.38;;
31112;SDS011;17763;48.730;9.136;2022-10-30T17:39:24;10.45;;;5.65;;
31112;SDS011;17763;48.730;9.136;2022-10-30T17:41:51;9.98;;;5.43;;
31112;SDS011;17763;48.730;9.136;2022-10-30T17:44:23;8.88;;;5.18;;
31112;SDS011;17763;48.730;9.136;2022-10-30T17:46:50;17.20;;;6.78;;
31112;SDS011;17763;48.730;9.136;2022-10-30T17:51:57;11.70;;;7.40;;
31112;SDS011;17763;48.730;9.136;2022-10-30T17:54:24;10.68;;;6.30;;
31112;SDS011;17763;48.730;9.136;2022-10-30T17:56:50;9.88;;;6.28;;
31112;SDS011;17763;48.730;9.136;2022-10-30T17:59:18;9.18;;;6.40;;
31112;SDS011;17763;48.730;9.136;2022-10-30T18:01:43;12.75;;;7.05;;
31112;SDS011;17763;48.730;9.136;2022-10-30T18:04:13;11.15;;;6.70;;
31112;SDS011;17763;48.730;9.136;2022-10-30T18:06:42;10.82;;;7.85;;
31112;SDS011;17763;48.730;9.136;2022-10-30T18:09:09;10.55;;;8.15;;
31112;SDS011;17763;48.730;9.136;2022-10-30T18:11:37;12.25;;;8.68;;